Time;durP1;ratioP1;P1;durP2;ratioP2;P2;SDS_P1;SDS_P2;PMS_P1;PMS_P2;Temp;Humidity;BMP_temperature;BMP_pressure;BME280_temperature;BME280_humidity;BME280_pressure;Samples;Min_cycle;Max_cycle;Signal;HPM_P1;HPM_P2
2022/12/12 00:01:26;;;;;;;23.27;14.37;;;;;;;-1.78;100.00;150917.09;5102261;28;20447;-86
2022/12/12 00:04:11;;;;;;;24.07;15.33;;;;;;;-1.79;100.00;150915.78;5096530;28;20401;-86
2022/12/12 00:06:57;;;;;;;25.47;14.10;;;;;;;-1.80;100.00;150911.97;5106298;28;20456;-76
2022/12/12 00:09:42;;;;;;;25.83;15.60;;;;;;;-1.82;100.00;150908.09;5098834;28;20420;-76
2022/12/12 00:12:27;;;;;;;29.90;16.37;;;;;;;-1.85;100.00;150901.69;5095432;28;20420;-76
2022/12/12 00:15:14;;;;;;;22.10;14.43;;;;;;;-1.82;100.00;150908.09;5101687;28;20526;-75
2022/12/12 00:17:59;;;;;;;25.10;14.40;;;;;;;-1.84;100.00;150902.97;5095200;28;20913;-76
2022/12/12 00:20:45;;;;;;;24.03;15.13;;;;;;;-1.89;100.00;150891.47;5108095;28;20451;-76
2022/12/12 00:23:30;;;;;;;28.50;14.27;;;;;;;-1.90;100.00;150887.59;5104998;27;20954;-76
2022/12/12 00:26:18;;;;;;;22.47;14.17;;;;;;;-1.95;100.00;150874.78;5100574;28;20499;-76
2022/12/12 00:29:05;;;;;;;26.67;14.50;;;;;;;-1.93;100.00;150879.91;5098682;28;20521;-76
2022/12/12 00:31:52;;;;;;;26.37;16.17;;;;;;;-1.96;100.00;150873.50;5111238;28;20786;-75
2022/12/12 00:34:37;;;;;;;25.50;14.83;;;;;;;-1.97;100.00;150870.97;5096127;27;20788;-76
2022/12/12 00:37:22;;;;;;;22.47;13.90;;;;;;;-2.00;100.00;150863.28;5104868;27;20937;-75
2022/12/12 00:40:10;;;;;;;21.80;13.90;;;;;;;-2.00;100.00;150862.00;5100956;28;20792;-76
2022/12/12 00:42:55;;;;;;;20.73;13.27;;;;;;;-2.04;100.00;150853.00;5110720;27;20434;-76
2022/12/12 00:45:41;;;;;;;20.30;13.23;;;;;;;-2.05;100.00;150849.19;5093073;28;20526;-76
2022/12/12 00:48:28;;;;;;;20.17;12.63;;;;;;;-2.07;100.00;150844.06;5109641;28;20489;-76
2022/12/12 00:51:16;;;;;;;19.97;12.50;;;;;;;-2.06;100.00;150846.59;5105308;28;20482;-76
2022/12/12 00:54:01;;;;;;;21.70;13.20;;;;;;;-2.06;100.00;150846.59;5110115;27;20496;-76
2022/12/12 00:56:47;;;;;;;21.40;12.80;;;;;;;-2.06;100.00;150846.59;5112081;28;20451;-76
2022/12/12 00:59:32;;;;;;;17.67;11.10;;;;;;;-2.06;100.00;150847.91;5099633;28;20546;-75
2022/12/12 01:02:19;;;;;;;19.43;11.93;;;;;;;-2.08;100.00;150841.50;5110992;28;20415;-75
2022/12/12 01:05:06;;;;;;;17.60;11.20;;;;;;;-2.11;100.00;150835.09;5104132;28;20536;-76
2022/12/12 01:07:51;;;;;;;19.67;11.40;;;;;;;-2.15;100.00;150823.59;5097669;28;20546;-76
2022/12/12 01:10:37;;;;;;;18.80;10.93;;;;;;;-2.19;100.00;150814.59;5105267;28;20447;-76
2022/12/12 01:13:23;;;;;;;15.53;10.73;;;;;;;-2.18;100.00;150815.91;5091161;28;20480;-75
2022/12/12 01:16:09;;;;;;;15.40;9.67;;;;;;;-2.24;100.00;150800.50;5111096;28;20525;-75
2022/12/12 01:18:54;;;;;;;17.93;10.33;;;;;;;-2.22;100.00;150806.91;5101761;28;20452;-76
2022/12/12 01:21:40;;;;;;;15.70;10.80;;;;;;;-2.25;100.00;150797.97;5092724;28;20432;-75
2022/12/12 01:24:26;;;;;;;18.43;11.63;;;;;;;-2.25;100.00;150799.22;5104632;28;20446;-75
2022/12/12 01:27:11;;;;;;;17.67;10.50;;;;;;;-2.23;100.00;150803.09;5106165;28;20456;-75
2022/12/12 01:30:00;;;;;;;20.77;11.97;;;;;;;-2.21;100.00;150809.50;5099062;28;20477;-75
2022/12/12 01:32:45;;;;;;;16.70;11.40;;;;;;;-2.23;100.00;150803.09;5102995;28;20435;-75
2022/12/12 01:35:32;;;;;;;18.03;11.40;;;;;;;-2.28;100.00;150790.28;5092758;28;20587;-75
2022/12/12 01:38:19;;;;;;;13.87;9.60;;;;;;;-2.35;100.00;150772.31;5095587;28;21143;-75
2022/12/12 01:41:04;;;;;;;17.53;10.50;;;;;;;-2.34;100.00;150776.19;5108820;28;20424;-75
2022/12/12 01:43:50;;;;;;;14.20;9.40;;;;;;;-2.36;100.00;150769.81;5105317;28;20976;-75
2022/12/12 01:46:41;;;;;;;14.93;9.37;;;;;;;-2.41;100.00;150757.00;5108711;28;20601;-75
2022/12/12 01:49:27;;;;;;;13.37;8.70;;;;;;;-2.43;100.00;150751.84;5108576;28;20435;-75
2022/12/12 01:52:16;;;;;;;14.63;9.37;;;;;;;-2.49;100.00;150739.03;5097728;28;20910;-75
2022/12/12 01:55:04;;;;;;;13.03;8.97;;;;;;;-2.51;100.00;150732.66;5090699;28;20472;-75
2022/12/12 01:57:52;;;;;;;17.13;10.83;;;;;;;-2.55;100.00;150723.72;5093369;28;20447;-75
2022/12/12 02:00:38;;;;;;;17.33;10.20;;;;;;;-2.59;100.00;150712.16;5097473;28;20970;-75
2022/12/12 02:03:23;;;;;;;14.17;9.73;;;;;;;-2.63;100.00;150703.22;5092053;28;20510;-75
2022/12/12 02:06:10;;;;;;;17.20;10.60;;;;;;;-2.69;100.00;150687.84;5090255;28;20443;-75
2022/12/12 02:08:59;;;;;;;19.53;11.07;;;;;;;-2.65;100.00;150698.06;5092336;28;20536;-75
2022/12/12 02:11:48;;;;;;;15.20;10.60;;;;;;;-2.66;100.00;150695.53;5101775;28;21013;-75
2022/12/12 02:14:36;;;;;;;18.87;11.50;;;;;;;-2.66;100.00;150695.53;5092465;28;20497;-75
2022/12/12 02:17:42;;;;;;;19.83;11.53;;;;;;;-2.72;100.00;150680.16;5101737;28;20440;-75
2022/12/12 02:20:50;;;;;;;18.10;12.10;;;;;;;-2.77;100.00;150667.38;5096568;28;20550;-75
2022/12/12 02:24:16;;;;;;;15.90;10.30;;;;;;;-2.82;100.00;150653.28;5095322;28;20436;-75
2022/12/12 02:27:16;;;;;;;15.30;10.30;;;;;;;-2.91;100.00;150631.53;5103078;28;20459;-75
2022/12/12 02:30:13;;;;;;;14.20;9.70;;;;;;;-2.95;100.00;150621.31;5102777;28;20517;-75
2022/12/12 02:33:18;;;;;;;16.77;10.70;;;;;;;-2.99;100.00;150611.03;5096317;28;20420;-75
2022/12/12 02:36:12;;;;;;;16.27;10.00;;;;;;;-3.08;100.00;150589.31;5092952;28;20517;-75
2022/12/12 02:39:05;;;;;;;14.93;10.30;;;;;;;-3.13;100.00;150576.53;5091327;28;20416;-75
2022/12/12 02:41:53;;;;;;;17.27;11.10;;;;;;;-3.15;100.00;150570.13;5093407;28;20498;-75
2022/12/12 02:44:42;;;;;;;14.43;9.40;;;;;;;-3.20;100.00;150557.31;5097256;28;20428;-75
2022/12/12 02:47:30;;;;;;;17.57;10.07;;;;;;;-3.24;100.00;150547.09;5097015;28;20440;-75
2022/12/12 02:50:19;;;;;;;15.50;10.40;;;;;;;-3.29;100.00;150535.59;5108992;28;20459;-75
2022/12/12 02:53:05;;;;;;;14.87;10.80;;;;;;;-3.35;100.00;150518.94;5111669;27;20897;-75
2022/12/12 02:56:00;;;;;;;16.50;11.30;;;;;;;-3.34;100.00;150521.50;5099211;28;20513;-75
2022/12/12 02:58:46;;;;;;;15.67;10.07;;;;;;;-3.39;100.00;150509.97;5095146;28;20502;-75
2022/12/12 03:01:37;;;;;;;17.67;11.40;;;;;;;-3.45;100.00;150493.38;5100267;28;21012;-74
2022/12/12 03:07:48;;;;;;;19.13;12.57;;;;;;;-3.55;100.00;150467.78;5102982;27;20502;-74
2022/12/12 03:10:43;;;;;;;17.97;11.60;;;;;;;-3.59;100.00;150458.81;5108553;28;20434;-74
2022/12/12 03:13:32;;;;;;;19.47;12.20;;;;;;;-3.59;100.00;150457.53;5107295;28;20464;-74
2022/12/12 03:16:24;;;;;;;18.77;11.87;;;;;;;-3.60;100.00;150455.00;5099069;28;20533;-75
2022/12/12 03:19:14;;;;;;;21.30;11.90;;;;;;;-3.61;100.00;150452.44;5098531;28;20797;-74
2022/12/12 03:22:01;;;;;;;18.27;11.40;;;;;;;-3.62;100.00;150451.13;5099785;28;20793;-75
2022/12/12 03:24:51;;;;;;;19.67;12.07;;;;;;;-3.65;100.00;150442.22;5104405;27;20466;-75
2022/12/12 03:27:40;;;;;;;21.50;13.30;;;;;;;-3.72;100.00;150425.56;5113440;28;20554;-74
2022/12/12 03:30:26;;;;;;;22.70;14.00;;;;;;;-3.76;100.00;150416.59;5113447;28;21033;-74
2022/12/12 03:33:18;;;;;;;20.23;12.73;;;;;;;-3.76;100.00;150415.38;5115168;28;20516;-74
2022/12/12 03:36:08;;;;;;;22.97;12.90;;;;;;;-3.79;100.00;150408.97;5098961;28;20521;-74
2022/12/12 03:38:57;;;;;;;24.33;13.43;;;;;;;-3.82;100.00;150401.28;5101546;28;20450;-74
2022/12/12 03:41:48;;;;;;;22.17;13.87;;;;;;;-3.80;100.00;150405.09;5104700;28;20443;-74
2022/12/12 03:44:37;;;;;;;21.17;13.60;;;;;;;-3.83;100.00;150398.72;5109165;27;20432;-75
2022/12/12 03:47:27;;;;;;;20.93;13.30;;;;;;;-3.84;100.00;150396.16;5096203;28;20432;-74
2022/12/12 03:50:16;;;;;;;17.47;12.30;;;;;;;-3.86;100.00;150389.75;5105612;28;20463;-74
2022/12/12 03:53:06;;;;;;;21.23;12.87;;;;;;;-3.88;100.00;150385.94;5110115;28;20443;-74
2022/12/12 03:55:55;;;;;;;25.00;14.03;;;;;;;-3.88;100.00;150385.94;5113582;28;20463;-75
2022/12/12 03:58:45;;;;;;;21.20;13.87;;;;;;;-3.90;100.00;150379.53;5109235;28;20443;-74
2022/12/12 04:01:35;;;;;;;25.30;14.80;;;;;;;-3.93;100.00;150371.88;5096560;28;20582;-74
2022/12/12 04:04:24;;;;;;;21.90;13.30;;;;;;;-3.92;100.00;150374.44;5113140;28;20922;-74
2022/12/12 04:07:13;;;;;;;25.50;13.97;;;;;;;-3.92;100.00;150375.69;5098774;27;20492;-74
2022/12/12 04:13:06;;;;;;;22.70;13.77;;;;;;;-3.94;100.00;150369.28;5093323;28;20776;-74
2022/12/12 04:15:57;;;;;;;24.93;15.17;;;;;;;-3.90;100.00;150380.84;5096119;28;20468;-74
2022/12/12 04:18:49;;;;;;;22.80;14.20;;;;;;;-3.84;100.00;150396.16;5112152;28;20447;-74
2022/12/12 04:24:45;;;;;;;23.53;14.57;;;;;;;-3.84;100.00;150394.91;5101413;27;20790;-74
2022/12/12 04:27:35;;;;;;;22.90;14.80;;;;;;;-3.86;100.00;150391.03;5109847;28;20420;-74
2022/12/12 04:30:20;;;;;;;23.83;14.87;;;;;;;-3.89;100.00;150383.34;5101904;27;20459;-74
2022/12/12 04:33:11;;;;;;;20.50;13.90;;;;;;;-3.89;100.00;150383.34;5097245;28;20432;-75
2022/12/12 04:35:58;;;;;;;23.23;13.97;;;;;;;-3.89;100.00;150383.34;5101871;27;20533;-75
2022/12/12 04:38:45;;;;;;;21.57;14.00;;;;;;;-3.89;100.00;150383.34;5115896;28;20826;-75
2022/12/12 04:41:33;;;;;;;20.57;13.37;;;;;;;-3.87;100.00;150388.50;5109848;28;20463;-75
2022/12/12 04:44:19;;;;;;;23.67;14.23;;;;;;;-3.86;100.00;150391.03;5107865;28;21099;-75
2022/12/12 04:47:06;;;;;;;22.40;14.37;;;;;;;-3.81;100.00;150402.53;5103130;28;20409;-75
2022/12/12 04:49:53;;;;;;;23.67;13.87;;;;;;;-3.78;100.00;150411.50;5102882;27;21102;-74
2022/12/12 04:52:39;;;;;;;24.20;14.13;;;;;;;-3.74;100.00;150420.47;5095299;28;20456;-75
2022/12/12 04:55:28;;;;;;;23.50;14.93;;;;;;;-3.72;100.00;150425.56;5092871;28;20983;-74
2022/12/12 04:58:14;;;;;;;20.83;13.67;;;;;;;-3.71;100.00;150428.16;5101566;28;20513;-74
2022/12/12 05:01:05;;;;;;;24.80;15.40;;;;;;;-3.70;100.00;150430.69;5102584;28;20451;-74
2022/12/12 05:03:54;;;;;;;26.50;15.30;;;;;;;-3.66;100.00;150439.66;5098987;27;20430;-73
2022/12/12 05:06:44;;;;;;;21.23;14.50;;;;;;;-3.66;100.00;150439.66;5106914;28;20447;-73
2022/12/12 05:09:30;;;;;;;25.57;15.57;;;;;;;-3.63;100.00;150447.31;5099716;28;20836;-73
2022/12/12 05:12:15;;;;;;;22.80;13.77;;;;;;;-3.62;100.00;150449.84;5108721;28;20439;-73
2022/12/12 05:15:01;;;;;;;21.53;14.30;;;;;;;-3.56;100.00;150465.22;5102873;27;21031;-73
2022/12/12 05:17:49;;;;;;;22.07;13.40;;;;;;;-3.56;100.00;150466.50;5106453;28;20435;-73
2022/12/12 05:20:34;;;;;;;24.30;15.47;;;;;;;-3.58;100.00;150461.41;5106334;28;20545;-73
2022/12/12 05:23:21;;;;;;;24.57;15.77;;;;;;;-3.56;100.00;150465.22;5110759;28;20424;-74
2022/12/12 05:26:08;;;;;;;26.13;16.40;;;;;;;-3.55;100.00;150467.78;5102486;27;21005;-75
2022/12/12 05:28:55;;;;;;;27.93;15.30;;;;;;;-3.54;100.00;150471.59;5100420;28;20424;-74
2022/12/12 05:31:41;;;;;;;25.73;15.83;;;;;;;-3.56;100.00;150465.22;5098734;27;20502;-75
2022/12/12 05:34:26;;;;;;;26.77;15.90;;;;;;;-3.54;100.00;150471.59;5096585;28;21000;-74
2022/12/12 05:37:11;;;;;;;27.47;16.30;;;;;;;-3.51;100.00;150478.00;5106670;28;20455;-74
2022/12/12 05:39:58;;;;;;;25.30;14.83;;;;;;;-3.48;100.00;150485.69;5120536;27;20516;-73
2022/12/12 05:42:44;;;;;;;24.10;14.80;;;;;;;-3.52;100.00;150475.47;5099820;28;20459;-74
2022/12/12 05:45:29;;;;;;;21.80;15.07;;;;;;;-3.48;100.00;150485.69;5102681;27;20508;-74
2022/12/12 05:48:15;;;;;;;25.70;15.93;;;;;;;-3.51;100.00;150478.00;5091675;28;21018;-75
2022/12/12 05:51:01;;;;;;;23.87;16.10;;;;;;;-3.49;100.00;150483.09;5093829;28;21351;-74
2022/12/12 05:53:46;;;;;;;23.80;15.63;;;;;;;-3.46;100.00;150490.78;5095132;28;20432;-74
2022/12/12 05:56:34;;;;;;;21.90;15.10;;;;;;;-3.46;100.00;150490.78;5104515;28;20479;-74
2022/12/12 05:59:19;;;;;;;26.93;15.83;;;;;;;-3.48;100.00;150486.97;5100813;28;20433;-74
2022/12/12 06:02:04;;;;;;;25.97;16.57;;;;;;;-3.47;100.00;150489.53;5097838;28;20440;-74
2022/12/12 06:04:50;;;;;;;24.00;14.67;;;;;;;-3.46;100.00;150490.78;5098927;28;20619;-74
2022/12/12 06:07:35;;;;;;;27.10;15.80;;;;;;;-3.43;100.00;150498.47;5093921;28;20440;-75
2022/12/12 06:10:20;;;;;;;27.30;15.57;;;;;;;-3.44;100.00;150497.19;5096899;28;20460;-74
2022/12/12 06:13:09;;;;;;;25.67;16.13;;;;;;;-3.48;100.00;150486.97;5104622;28;20566;-74
2022/12/12 06:15:54;;;;;;;23.80;14.57;;;;;;;-3.48;100.00;150485.69;5100110;28;20484;-74
2022/12/12 06:18:39;;;;;;;25.57;16.50;;;;;;;-3.48;100.00;150485.69;5092146;28;20470;-74
2022/12/12 06:21:25;;;;;;;25.57;15.07;;;;;;;-3.51;100.00;150478.00;5099707;28;20962;-74
2022/12/12 06:24:10;;;;;;;24.40;16.27;;;;;;;-3.50;100.00;150480.56;5093325;28;20439;-74
2022/12/12 06:26:56;;;;;;;22.67;15.33;;;;;;;-3.50;100.00;150481.88;5095690;28;20555;-74
2022/12/12 06:29:43;;;;;;;24.80;16.43;;;;;;;-3.50;100.00;150480.56;5097285;28;20478;-74
2022/12/12 06:32:28;;;;;;;24.40;15.27;;;;;;;-3.54;100.00;150471.59;5116016;28;20553;-75
2022/12/12 06:35:14;;;;;;;25.40;14.07;;;;;;;-3.51;100.00;150478.00;5115902;28;20777;-72
2022/12/12 06:38:00;;;;;;;23.60;15.93;;;;;;;-3.49;100.00;150484.38;5115513;28;20451;-74
2022/12/12 06:40:45;;;;;;;22.77;15.30;;;;;;;-3.47;100.00;150488.25;5104721;28;20533;-74
2022/12/12 06:43:30;;;;;;;24.50;13.87;;;;;;;-3.50;100.00;150480.56;5135957;27;20457;-74
2022/12/12 06:46:20;;;;;;;22.27;14.90;;;;;;;-3.50;100.00;150481.88;5125588;27;20977;-74
2022/12/12 06:49:08;;;;;;;23.37;16.27;;;;;;;-3.51;100.00;150479.28;5111257;28;20609;-74
2022/12/12 06:51:54;;;;;;;27.37;16.30;;;;;;;-3.53;100.00;150472.91;5115751;28;20407;-74
2022/12/12 06:54:39;;;;;;;30.53;19.70;;;;;;;-3.54;100.00;150470.31;5114335;28;20442;-74
2022/12/12 06:57:24;;;;;;;46.47;26.77;;;;;;;-3.52;100.00;150476.72;5099117;28;20456;-74
2022/12/12 07:00:10;;;;;;;46.20;27.70;;;;;;;-3.53;100.00;150472.91;5094260;28;20901;-74
2022/12/12 07:02:57;;;;;;;45.50;25.20;;;;;;;-3.53;100.00;150472.91;5093172;28;20404;-74
2022/12/12 07:05:44;;;;;;;43.47;23.37;;;;;;;-3.51;100.00;150478.00;5093892;28;20436;-73
2022/12/12 07:08:29;;;;;;;30.63;20.17;;;;;;;-3.53;100.00;150474.19;5103485;28;20440;-74
2022/12/12 07:11:16;;;;;;;37.03;20.50;;;;;;;-3.55;100.00;150467.78;5092966;28;20539;-74
2022/12/12 07:14:04;;;;;;;29.53;18.50;;;;;;;-3.55;100.00;150469.06;5106555;28;20799;-74
2022/12/12 07:16:49;;;;;;;27.53;19.37;;;;;;;-3.55;100.00;150467.78;5104898;28;20955;-74
2022/12/12 07:19:36;;;;;;;27.30;17.30;;;;;;;-3.54;100.00;150470.31;5093901;28;20405;-74
2022/12/12 07:22:21;;;;;;;23.87;16.40;;;;;;;-3.52;100.00;150475.47;5109886;28;21068;-74
2022/12/12 07:25:07;;;;;;;25.77;15.37;;;;;;;-3.58;100.00;150461.41;5112895;28;20454;-73
2022/12/12 07:27:53;;;;;;;23.53;16.10;;;;;;;-3.59;100.00;150457.53;5094569;28;20447;-74
2022/12/12 07:30:39;;;;;;;29.23;16.17;;;;;;;-3.56;100.00;150465.22;5093674;28;20570;-74
2022/12/12 07:33:25;;;;;;;27.47;16.27;;;;;;;-3.50;100.00;150481.88;5104798;28;20468;-74
2022/12/12 07:36:12;;;;;;;29.47;18.03;;;;;;;-3.56;100.00;150465.22;5094482;28;20432;-74
2022/12/12 07:38:57;;;;;;;31.90;18.80;;;;;;;-3.52;100.00;150475.47;5106221;28;20420;-73
2022/12/12 07:41:43;;;;;;;30.20;17.00;;;;;;;-3.52;100.00;150475.47;5114988;28;20428;-73
2022/12/12 07:44:28;;;;;;;25.80;17.60;;;;;;;-3.51;100.00;150479.28;5113208;28;20572;-73
2022/12/12 07:47:14;;;;;;;27.10;16.47;;;;;;;-3.50;100.00;150480.56;5114105;28;20407;-73
2022/12/12 07:49:59;;;;;;;28.93;16.83;;;;;;;-3.50;100.00;150480.56;5105223;28;20440;-73
2022/12/12 07:52:47;;;;;;;26.20;15.53;;;;;;;-3.46;100.00;150490.78;5110389;28;20468;-74
2022/12/12 07:55:32;;;;;;;27.87;16.37;;;;;;;-3.43;100.00;150498.47;5112467;28;20431;-74
2022/12/12 07:58:18;;;;;;;29.70;16.50;;;;;;;-3.49;100.00;150483.09;5094071;28;20534;-74
2022/12/12 08:01:08;;;;;;;25.70;16.53;;;;;;;-3.50;100.00;150480.56;5112811;28;20423;-74
2022/12/12 08:03:54;;;;;;;23.90;16.27;;;;;;;-3.47;100.00;150488.25;5093662;28;20546;-73
2022/12/12 08:06:39;;;;;;;27.60;18.00;;;;;;;-3.45;100.00;150493.38;5094465;28;20436;-74
2022/12/12 08:09:26;;;;;;;27.30;17.93;;;;;;;-3.43;100.00;150499.75;5111623;28;20414;-74
2022/12/12 08:12:11;;;;;;;29.40;17.10;;;;;;;-3.40;100.00;150506.16;5104862;28;20439;-74
2022/12/12 08:14:56;;;;;;;25.83;17.57;;;;;;;-3.38;100.00;150512.53;5093579;28;20428;-74
2022/12/12 08:17:42;;;;;;;23.97;17.47;;;;;;;-3.36;100.00;150517.66;5093128;28;20984;-73
2022/12/12 08:20:27;;;;;;;25.00;15.10;;;;;;;-3.29;100.00;150535.59;5106049;28;20463;-73
2022/12/12 08:23:12;;;;;;;24.33;16.00;;;;;;;-3.32;100.00;150526.63;5112079;28;20400;-74
2022/12/12 08:26:03;;;;;;;28.87;17.10;;;;;;;-3.26;100.00;150541.97;5093174;28;20931;-74
2022/12/12 08:28:49;;;;;;;21.10;14.10;;;;;;;-3.21;100.00;150554.78;5098083;28;20448;-74
2022/12/12 08:31:34;;;;;;;25.53;16.37;;;;;;;-3.17;100.00;150565.00;5118137;27;20448;-74
2022/12/12 08:34:19;;;;;;;28.83;16.50;;;;;;;-3.19;100.00;150561.16;5093325;28;20884;-74
2022/12/12 08:37:05;;;;;;;24.43;14.97;;;;;;;-3.16;100.00;150567.56;5092306;28;20578;-74
2022/12/12 08:39:50;;;;;;;26.57;15.67;;;;;;;-3.09;100.00;150585.47;5093467;28;20437;-74
2022/12/12 08:42:37;;;;;;;25.80;16.30;;;;;;;-3.10;100.00;150582.94;5113370;28;20432;-73
2022/12/12 08:45:22;;;;;;;25.90;15.73;;;;;;;-3.05;100.00;150595.72;5116318;27;20598;-74
2022/12/12 08:48:08;;;;;;;27.07;15.70;;;;;;;-3.04;100.00;150598.25;5095344;28;20523;-74
2022/12/12 08:50:53;;;;;;;24.80;15.20;;;;;;;-2.96;100.00;150617.44;5092830;28;20922;-74
2022/12/12 08:53:39;;;;;;;24.17;15.17;;;;;;;-2.89;100.00;150635.38;5112087;28;20431;-74
2022/12/12 08:56:24;;;;;;;25.23;15.57;;;;;;;-2.89;100.00;150635.38;5108941;28;20607;-74
2022/12/12 08:59:12;;;;;;;24.90;15.50;;;;;;;-2.85;100.00;150646.91;5102975;28;20428;-74
2022/12/12 09:01:57;;;;;;;24.00;15.20;;;;;;;-2.89;100.00;150635.38;5113347;28;20922;-82
2022/12/12 09:04:43;;;;;;;26.40;16.13;;;;;;;-2.84;100.00;150649.47;5114143;28;20937;-82
2022/12/12 09:07:28;;;;;;;25.13;16.20;;;;;;;-2.81;100.00;150655.88;5113311;28;20431;-82
2022/12/12 09:10:14;;;;;;;24.77;15.57;;;;;;;-2.75;100.00;150672.47;5113635;28;20477;-82
2022/12/12 09:12:59;;;;;;;22.43;14.83;;;;;;;-2.68;100.00;150690.44;5117467;28;20419;-82
2022/12/12 09:15:45;;;;;;;24.93;15.63;;;;;;;-2.64;100.00;150700.66;5122179;28;20451;-82
2022/12/12 09:18:31;;;;;;;26.57;16.27;;;;;;;-2.60;100.00;150710.91;5112568;28;20470;-82
2022/12/12 09:21:16;;;;;;;23.80;16.17;;;;;;;-2.53;100.00;150728.81;5112278;28;20443;-82
2022/12/12 09:24:02;;;;;;;26.30;17.20;;;;;;;-2.48;100.00;150741.63;5104153;28;20437;-82
2022/12/12 09:26:47;;;;;;;25.17;16.20;;;;;;;-2.46;100.00;150746.72;5095512;28;20439;-82
2022/12/12 09:29:32;;;;;;;24.13;15.83;;;;;;;-2.43;100.00;150751.84;5109469;28;20459;-82
2022/12/12 09:32:20;;;;;;;20.80;15.47;;;;;;;-2.38;100.00;150765.94;5097791;28;20446;-82
2022/12/12 09:35:06;;;;;;;24.10;15.20;;;;;;;-2.42;100.00;150754.41;5092126;28;20811;-82
2022/12/12 09:37:51;;;;;;;23.70;15.50;;;;;;;-2.36;100.00;150769.81;5091351;28;20821;-82
2022/12/12 09:40:42;;;;;;;21.53;14.97;;;;;;;-2.31;100.00;150782.59;5112000;28;20440;-82
2022/12/12 09:43:29;;;;;;;26.77;16.37;;;;;;;-2.28;100.00;150790.28;5112472;27;20411;-82
2022/12/12 09:46:22;;;;;;;21.63;15.90;;;;;;;-2.26;100.00;150796.69;5102581;28;20554;-82
2022/12/12 09:49:13;;;;;;;22.20;16.80;;;;;;;-2.19;100.00;150813.31;5092846;28;20919;-82
2022/12/12 09:51:59;;;;;;;28.07;17.07;;;;;;;-2.12;100.00;150831.28;5109327;28;20767;-82
2022/12/12 09:54:45;;;;;;;28.10;16.57;;;;;;;-2.07;100.00;150844.06;5111516;28;20443;-82
2022/12/12 09:57:34;;;;;;;26.27;16.70;;;;;;;-2.04;100.00;150853.00;5107349;28;20534;-82
2022/12/12 10:00:19;;;;;;;24.13;16.83;;;;;;;-1.93;100.00;150879.91;5103187;28;20455;-82
2022/12/12 10:03:13;;;;;;;24.97;16.30;;;;;;;-1.92;100.00;150882.50;5104827;28;20601;-82
2022/12/12 10:06:05;;;;;;;21.70;15.07;;;;;;;-1.88;100.00;150892.75;5092179;28;20879;-82
2022/12/12 10:09:00;;;;;;;22.63;15.23;;;;;;;-1.83;100.00;150905.56;5097781;28;20439;-82
2022/12/12 10:11:53;;;;;;;30.53;16.20;;;;;;;-1.78;100.00;150917.09;5101567;28;20452;-82
2022/12/12 10:14:42;;;;;;;25.47;17.10;;;;;;;-1.74;100.00;150928.59;5091794;28;20774;-82
2022/12/12 10:17:31;;;;;;;23.67;16.03;;;;;;;-1.74;100.00;150928.59;5103654;28;20455;-82
2022/12/12 10:20:21;;;;;;;25.10;15.30;;;;;;;-1.73;100.00;150929.88;5112250;28;20427;-82
2022/12/12 10:23:15;;;;;;;24.33;14.77;;;;;;;-1.68;100.00;150943.97;5092572;28;20822;-82
2022/12/12 10:26:03;;;;;;;24.80;15.47;;;;;;;-1.67;100.00;150945.28;5108279;28;20761;-82
2022/12/12 10:28:51;;;;;;;22.10;14.30;;;;;;;-1.59;100.00;150967.03;5108134;28;20436;-82
2022/12/12 10:31:41;;;;;;;25.73;16.33;;;;;;;-1.64;100.00;150954.22;5111298;28;20427;-82
2022/12/12 10:34:39;;;;;;;22.20;14.40;;;;;;;-1.64;100.00;150954.22;5108583;28;20557;-82
2022/12/12 10:37:38;;;;;;;24.97;15.60;;;;;;;-1.62;100.00;150958.09;5105740;28;20982;-82
2022/12/12 10:40:34;;;;;;;31.10;17.30;;;;;;;-1.60;100.00;150964.50;5110793;28;20489;-82
2022/12/12 10:43:22;;;;;;;23.33;15.27;;;;;;;-1.63;100.00;150955.50;5102038;28;20448;-82
2022/12/12 10:46:22;;;;;;;22.27;13.67;;;;;;;-1.68;100.00;150943.97;5111058;28;20572;-82
2022/12/12 10:49:14;;;;;;;28.73;16.17;;;;;;;-1.63;100.00;150956.78;5112052;28;20754;-82
2022/12/12 10:52:03;;;;;;;23.37;16.00;;;;;;;-1.65;100.00;150951.69;5111589;28;20404;-81
2022/12/12 10:54:52;;;;;;;28.60;15.27;;;;;;;-1.65;100.00;150950.41;5111161;28;20459;-82
2022/12/12 10:57:38;;;;;;;20.17;15.03;;;;;;;-1.69;100.00;150941.41;5111404;28;20589;-81
2022/12/12 11:00:27;;;;;;;25.43;15.37;;;;;;;-1.66;100.00;150947.81;5112724;28;20428;-81
2022/12/12 11:03:25;;;;;;;20.83;14.00;;;;;;;-1.65;100.00;150951.69;5110573;28;20444;-82
2022/12/12 11:06:14;;;;;;;22.53;14.20;;;;;;;-1.62;100.00;150958.09;5113230;28;20498;-81
2022/12/12 11:09:10;;;;;;;21.80;14.60;;;;;;;-1.66;100.00;150949.09;5095476;28;20396;-81
2022/12/12 11:12:00;;;;;;;19.07;13.13;;;;;;;-1.64;100.00;150952.97;5101027;28;20542;-81
2022/12/12 11:14:49;;;;;;;18.20;12.70;;;;;;;-1.66;100.00;150949.09;5095380;28;20780;-81
2022/12/12 11:17:35;;;;;;;21.53;13.97;;;;;;;-1.66;100.00;150949.09;5094832;28;20582;-81
2022/12/12 11:20:20;;;;;;;26.70;13.33;;;;;;;-1.65;100.00;150950.41;5103537;28;20436;-81
2022/12/12 11:23:06;;;;;;;17.20;11.37;;;;;;;-1.61;100.00;150961.91;5114162;28;20922;-82
2022/12/12 11:25:57;;;;;;;20.87;13.00;;;;;;;-1.61;100.00;150961.91;5115413;28;20577;-82
2022/12/12 11:28:44;;;;;;;19.60;13.40;;;;;;;-1.63;99.63;150956.78;5118334;28;20420;-82
2022/12/12 11:31:33;;;;;;;17.40;10.97;;;;;;;-1.63;99.84;150956.78;5114192;28;20447;-82
2022/12/12 11:34:18;;;;;;;21.97;11.90;;;;;;;-1.65;98.68;150951.69;5094797;28;20559;-82
2022/12/12 11:37:04;;;;;;;19.83;11.07;;;;;;;-1.61;98.27;150960.63;5092695;28;20515;-82
2022/12/12 11:39:51;;;;;;;15.57;10.80;;;;;;;-1.64;97.69;150954.22;5107090;27;20505;-83
2022/12/12 11:42:37;;;;;;;20.40;11.73;;;;;;;-1.61;97.52;150960.63;5115169;28;20450;-83
2022/12/12 11:45:23;;;;;;;21.77;12.37;;;;;;;-1.56;98.49;150974.72;5112801;27;20487;-83
2022/12/12 11:48:31;;;;;;;17.73;11.00;;;;;;;-1.59;98.41;150965.78;5096883;28;20444;-82
2022/12/12 11:51:31;;;;;;;17.03;11.00;;;;;;;-1.56;98.15;150973.47;5101479;28;20454;-82
2022/12/12 11:54:23;;;;;;;17.10;11.50;;;;;;;-1.54;97.65;150979.88;5114171;28;20447;-82
2022/12/12 11:57:13;;;;;;;19.40;12.00;;;;;;;-1.56;99.00;150973.47;5112352;28;20457;-82
2022/12/12 12:00:05;;;;;;;16.17;11.33;;;;;;;-1.56;96.62;150974.72;5114543;28;20463;-82
2022/12/12 12:03:21;;;;;;;13.50;8.83;;;;;;;-1.54;96.47;150979.88;5114715;28;20550;-82
2022/12/12 12:06:17;;;;;;;16.53;10.90;;;;;;;-1.55;96.52;150977.28;5109989;27;20447;-82
2022/12/12 12:09:16;;;;;;;15.93;8.77;;;;;;;-1.53;95.07;150981.13;5121798;27;20529;-83
2022/12/12 12:12:06;;;;;;;10.87;7.73;;;;;;;-1.53;97.82;150982.41;5094073;28;20397;-83
2022/12/12 12:15:04;;;;;;;11.13;7.23;;;;;;;-1.53;95.07;150981.13;5096282;28;20510;-82
2022/12/12 12:18:08;;;;;;;11.90;7.20;;;;;;;-1.48;93.55;150995.22;5110767;28;20467;-83
2022/12/12 12:21:14;;;;;;;15.13;9.17;;;;;;;-1.47;94.56;150996.50;5102277;28;20440;-82
2022/12/12 12:24:23;;;;;;;10.27;6.90;;;;;;;-1.35;92.02;151028.53;5093510;28;20486;-83
2022/12/12 12:27:14;;;;;;;10.87;7.10;;;;;;;-1.32;90.57;151036.22;5112805;28;20428;-83
2022/12/12 12:30:13;;;;;;;12.70;7.60;;;;;;;-1.26;91.82;151050.34;5111787;27;20447;-83
2022/12/12 12:33:18;;;;;;;11.57;7.30;;;;;;;-1.32;91.56;151036.22;5093641;28;20412;-83
2022/12/12 12:36:09;;;;;;;11.53;7.87;;;;;;;-1.33;91.98;151033.69;5110931;28;20465;-83
2022/12/12 12:39:05;;;;;;;10.20;7.53;;;;;;;-1.33;91.58;151033.69;5106726;28;20463;-82
2022/12/12 12:42:00;;;;;;;18.60;7.70;;;;;;;-1.31;91.50;151038.81;5093171;28;20464;-83
2022/12/12 12:44:50;;;;;;;10.23;7.13;;;;;;;-1.29;88.42;151043.94;5099194;28;20530;-83
2022/12/12 12:47:46;;;;;;;12.57;8.30;;;;;;;-1.22;89.13;151060.63;5111493;28;20536;-83